Worthington Springs, Florida
Current Conditions -  °F | °C
As of 7:53 AM on Sunday 21 Dec 2014 (Local Time) from KGNV Reporting Station
Haze Haze  
Wind Chill: 58°   Ceiling: 200
Heat Index: 58°   Visibility: 0.75mi
Dew Point: 58°   Wind: 6mph
Humidity: 100%   Direction: 50°NE
Pressure: 30.11"   Gusts: NA
Location:  29.93°N, 82.42°W
Report Text: KGNV 211253Z AUTO 05005KT 3/4SM BR OVC002 14/14 A3011 RMK AO2 SLP196 T01440144
Loading
Personal Weather Stations






























Interactive Weather Map New forecast layout! Learn more

10-Day Weather Forecast

Advertisements
Track Severe Weather on mobile